Time;durP1;ratioP1;P1;durP2;ratioP2;P2;SDS_P1;SDS_P2;PMS_P1;PMS_P2;Temp;Humidity;BMP_temperature;BMP_pressure;BME280_temperature;BME280_humidity;BME280_pressure;Samples;Min_cycle;Max_cycle;Signal;HPM_P1;HPM_P2
2021/09/26 00:01:20;;;;;;;;;29.33;29.33;;;;;18.67;71.16;100618.38;4989737;28;45511;-82
2021/09/26 00:03:45;;;;;;;;;42.00;35.00;;;;;18.61;71.32;100610.44;5005878;28;45457;-81
2021/09/26 00:06:11;;;;;;;;;34.00;31.33;;;;;18.57;71.32;100609.59;4989487;28;45231;-81
2021/09/26 00:08:36;;;;;;;;;32.00;27.33;;;;;18.53;70.99;100610.59;5009713;28;45477;-82
2021/09/26 00:11:05;;;;;;;;;23.00;22.67;;;;;18.51;71.70;100612.41;5010430;28;45617;-82
2021/09/26 00:13:35;;;;;;;;;24.00;23.00;;;;;18.48;71.61;100617.88;4992748;28;47300;-81
2021/09/26 00:19:27;;;;;;;;;24.67;21.00;;;;;18.45;71.30;100623.31;5011073;28;45425;-82
2021/09/26 00:21:53;;;;;;;;;17.33;17.33;;;;;18.44;71.30;100626.03;5010244;28;45427;-82
2021/09/26 00:24:18;;;;;;;;;28.00;20.33;;;;;18.42;71.54;100630.56;4990221;28;45566;-82
2021/09/26 00:26:44;;;;;;;;;23.67;23.67;;;;;18.37;71.60;100627.97;4990107;28;44836;-83
2021/09/26 00:29:10;;;;;;;;;24.67;23.67;;;;;18.33;71.40;100615.50;4991088;28;44795;-82
2021/09/26 00:31:35;;;;;;;;;22.67;21.67;;;;;18.33;71.32;100626.25;5009179;28;45380;-81
2021/09/26 00:34:03;;;;;;;;;23.00;22.33;;;;;18.34;71.63;100628.00;5008696;28;46046;-82
2021/09/26 00:36:29;;;;;;;;;23.00;22.33;;;;;18.35;71.51;100628.00;4990537;28;45468;-82
2021/09/26 00:38:55;;;;;;;;;24.67;22.67;;;;;18.37;71.15;100627.97;5009759;28;45499;-82
2021/09/26 00:41:22;;;;;;;;;28.00;23.67;;;;;18.36;71.29;100631.56;5008639;28;45532;-82
2021/09/26 00:43:47;;;;;;;;;24.00;23.00;;;;;18.38;71.37;100635.16;4990310;28;46931;-81
2021/09/26 00:46:13;;;;;;;;;15.33;15.33;;;;;18.38;71.56;100643.22;4990524;28;45709;-83
2021/09/26 00:48:38;;;;;;;;;21.67;21.00;;;;;18.37;71.73;100658.47;4991119;28;45439;-82
2021/09/26 00:51:10;;;;;;;;;23.00;22.67;;;;;18.32;71.68;100651.38;5009658;28;45427;-82
2021/09/26 00:53:39;;;;;;;;;21.00;19.67;;;;;18.37;71.75;100661.16;4991793;28;47009;-82
2021/09/26 00:56:05;;;;;;;;;21.67;21.00;;;;;18.35;71.36;100648.66;4990560;28;45890;-82
2021/09/26 00:58:31;;;;;;;;;20.33;18.33;;;;;18.31;71.14;100638.88;4991150;28;45383;-81
2021/09/26 01:00:56;;;;;;;;;17.33;17.33;;;;;18.35;71.11;100635.19;4990105;28;45536;-82
2021/09/26 01:03:21;;;;;;;;;21.00;19.00;;;;;18.31;70.98;100622.72;4990259;28;47166;-82
2021/09/26 01:06:23;;;;;;;;;20.00;18.67;;;;;18.39;70.95;100626.13;5008237;28;45168;-82
2021/09/26 01:09:01;;;;;;;;;19.67;16.00;;;;;18.41;71.02;100635.06;4989676;28;45474;-82
2021/09/26 01:11:39;;;;;;;;;15.00;15.00;;;;;18.45;71.05;100642.16;4990427;28;45434;-82
2021/09/26 01:18:01;;;;;;;;;17.67;17.67;;;;;18.55;70.84;100641.06;5008027;28;45565;-82
2021/09/26 01:20:48;;;;;;;;;18.00;18.00;;;;;18.61;70.45;100640.06;4989993;28;45441;-82
2021/09/26 01:23:41;;;;;;;;;14.67;14.67;;;;;18.64;70.08;100641.78;4991873;28;44816;-82
2021/09/26 01:26:21;;;;;;;;;14.67;13.33;;;;;18.68;70.40;100648.88;5008522;28;46842;-82
2021/09/26 01:28:59;;;;;;;;;16.67;15.00;;;;;18.69;70.40;100639.91;5008742;28;44836;-82
2021/09/26 01:31:31;;;;;;;;;16.67;15.67;;;;;18.67;70.44;100647.13;5008677;28;45857;-82
2021/09/26 01:34:05;;;;;;;;;14.33;14.33;;;;;18.70;70.30;100649.75;5008576;28;44884;-81
2021/09/26 01:36:52;;;;;;;;;15.00;15.00;;;;;18.65;69.79;100648.97;5007202;28;47548;-81
2021/09/26 01:39:21;;;;;;;;;15.33;15.33;;;;;18.71;70.05;100652.41;4990995;28;45495;-82
2021/09/26 01:42:33;;;;;;;;;15.67;15.67;;;;;18.82;69.63;100673.75;4991662;28;45507;-81
2021/09/26 01:45:01;;;;;;;;;19.67;19.00;;;;;18.75;70.44;100667.59;4946947;28;45492;-82
2021/09/26 01:47:36;;;;;;;;;17.33;17.33;;;;;18.61;70.35;100647.25;4931889;28;47291;-82
2021/09/26 01:50:09;;;;;;;;;16.67;16.33;;;;;18.61;70.49;100663.41;4948315;28;45801;-81
2021/09/26 01:52:36;;;;;;;;;22.00;21.33;;;;;18.52;71.63;100649.22;4931715;28;45369;-82
2021/09/26 01:55:04;;;;;;;;;21.33;21.00;;;;;18.46;70.91;100649.34;4947184;28;45626;-82
2021/09/26 01:57:30;;;;;;;;;20.33;20.33;;;;;18.45;71.05;100647.56;4929334;28;46831;-82
2021/09/26 01:59:59;;;;;;;;;19.67;19.67;;;;;18.43;71.22;100644.00;4945613;28;45462;-82
2021/09/26 02:02:27;;;;;;;;;19.67;19.67;;;;;18.45;71.55;100644.84;4945867;28;44904;-82
2021/09/26 02:05:00;;;;;;;;;18.33;17.33;;;;;18.42;71.29;100642.25;4929728;28;45759;-82
2021/09/26 02:07:27;;;;;;;;;19.33;18.33;;;;;18.41;71.14;100639.56;4929808;28;47188;-82
2021/09/26 02:09:54;;;;;;;;;14.00;14.00;;;;;18.40;71.26;100633.31;4929349;28;45165;-81
2021/09/26 02:12:20;;;;;;;;;16.00;16.00;;;;;18.49;71.24;100637.63;4930404;28;45354;-82
2021/09/26 02:14:48;;;;;;;;;16.00;16.00;;;;;18.50;71.00;100637.59;4955392;28;45510;-82
2021/09/26 02:17:15;;;;;;;;;17.00;16.33;;;;;18.49;71.25;100643.88;5005698;28;47147;-82
2021/09/26 02:19:48;;;;;;;;;14.00;14.00;;;;;18.48;70.93;100636.75;4989315;28;45948;-82
2021/09/26 02:22:20;;;;;;;;;15.67;15.67;;;;;18.50;71.25;100656.44;5005650;28;45489;-81
2021/09/26 02:24:47;;;;;;;;;17.00;17.00;;;;;18.57;71.20;100658.06;4988707;28;45740;-81
2021/09/26 02:27:12;;;;;;;;;19.67;19.67;;;;;18.65;71.04;100657.94;5006431;28;47574;-81
2021/09/26 02:29:37;;;;;;;;;15.33;13.67;;;;;18.67;70.77;100657.91;4989561;28;45532;-82
2021/09/26 02:32:04;;;;;;;;;16.00;16.00;;;;;18.67;70.77;100652.50;4990452;28;45521;-82
2021/09/26 02:34:29;;;;;;;;;17.33;15.00;;;;;18.66;70.98;100646.22;5008371;28;44904;-82
2021/09/26 02:36:55;;;;;;;;;16.67;16.67;;;;;18.62;70.86;100646.31;5009070;28;45227;-83
2021/09/26 02:39:21;;;;;;;;;14.67;14.00;;;;;18.68;70.87;100660.53;5008543;28;45513;-82
2021/09/26 02:42:05;;;;;;;;;12.00;10.00;;;;;18.65;70.71;100648.97;4989320;28;45451;-82
2021/09/26 02:44:55;;;;;;;;;11.67;11.67;;;;;18.68;70.90;100659.66;5007412;28;45610;-82
2021/09/26 02:47:26;;;;;;;;;18.67;16.33;;;;;18.76;70.48;100663.06;5007607;28;45390;-81
2021/09/26 02:49:53;;;;;;;;;12.33;11.33;;;;;18.76;70.52;100649.59;4989776;28;44937;-83
2021/09/26 02:52:21;;;;;;;;;17.33;14.33;;;;;18.71;71.37;100655.09;4996240;28;45548;-81
2021/09/26 02:54:47;;;;;;;;;11.67;11.00;;;;;18.69;70.81;100639.91;5010315;28;44775;-82
2021/09/26 02:57:13;;;;;;;;;13.67;13.33;;;;;18.63;70.53;100627.44;4988703;28;46811;-81
2021/09/26 02:59:40;;;;;;;;;12.33;11.00;;;;;18.67;70.52;100639.03;4986782;28;45558;-81
2021/09/26 03:02:07;;;;;;;;;13.67;12.00;;;;;18.61;71.03;100623.00;5004944;28;45699;-82
2021/09/26 03:04:40;;;;;;;;;15.00;15.00;;;;;18.63;70.67;100632.81;5006398;28;45337;-82
2021/09/26 03:07:05;;;;;;;;;15.33;12.67;;;;;18.58;70.91;100621.25;5005078;28;46176;-81
2021/09/26 03:09:31;;;;;;;;;13.67;13.67;;;;;18.55;71.02;100611.44;5003738;28;44828;-82
2021/09/26 03:11:56;;;;;;;;;13.67;13.67;;;;;18.50;70.84;100607.06;5005595;28;45367;-82
2021/09/26 03:14:21;;;;;;;;;16.33;16.33;;;;;18.46;71.17;100606.25;5005696;28;45456;-82
2021/09/26 03:16:47;;;;;;;;;15.33;15.33;;;;;18.38;71.39;100597.44;4988176;28;46972;-82
2021/09/26 03:19:12;;;;;;;;;17.00;15.33;;;;;18.34;71.52;100606.47;4988692;28;44856;-82
2021/09/26 03:21:37;;;;;;;;;14.33;14.33;;;;;18.28;71.89;100595.84;4989412;28;45313;-82
2021/09/26 03:24:04;;;;;;;;;15.00;13.00;;;;;18.22;71.82;100598.66;5006682;28;45291;-83
2021/09/26 03:26:30;;;;;;;;;17.33;16.33;;;;;18.17;71.87;100610.41;4988773;28;46948;-82
2021/09/26 03:28:55;;;;;;;;;18.00;16.00;;;;;18.13;72.21;100607.81;4988356;28;45364;-82
2021/09/26 03:31:23;;;;;;;;;18.33;15.67;;;;;18.08;73.00;100590.88;5006104;28;44762;-82
2021/09/26 03:33:48;;;;;;;;;16.33;16.33;;;;;18.07;72.97;100584.56;4989166;28;45443;-82
2021/09/26 03:36:14;;;;;;;;;15.33;14.33;;;;;18.08;72.73;100589.06;5006006;28;45450;-82
2021/09/26 03:38:39;;;;;;;;;15.00;15.00;;;;;18.05;73.07;100583.72;5006124;28;45695;-82
2021/09/26 03:41:05;;;;;;;;;16.33;16.33;;;;;18.05;73.29;100599.88;5007879;28;45786;-81
2021/09/26 03:43:30;;;;;;;;;19.33;18.33;;;;;17.94;72.92;100581.25;5009976;28;45399;-81
2021/09/26 03:45:56;;;;;;;;;20.67;17.67;;;;;17.98;73.04;100592.84;4992934;28;46884;-80
2021/09/26 03:48:22;;;;;;;;;17.67;16.33;;;;;18.02;73.22;100586.50;5009163;28;45485;-81
2021/09/26 03:50:50;;;;;;;;;14.00;14.00;;;;;18.02;73.09;100589.19;4991997;28;45795;-81
2021/09/26 03:53:16;;;;;;;;;20.00;19.67;;;;;18.02;73.49;100578.41;5009744;28;45407;-82
2021/09/26 03:55:42;;;;;;;;;20.00;20.00;;;;;18.01;74.02;100589.19;4989725;28;46239;-81
2021/09/26 03:58:07;;;;;;;;;20.00;18.67;;;;;17.96;75.15;100579.41;5005331;28;45486;-82
2021/09/26 04:00:33;;;;;;;;;17.33;17.00;;;;;17.90;74.93;100578.66;4990288;28;45381;-82
2021/09/26 04:03:00;;;;;;;;;18.00;18.00;;;;;17.84;75.17;100576.06;4990792;28;44886;-82
2021/09/26 04:05:25;;;;;;;;;19.67;18.00;;;;;17.77;75.06;100576.16;5008017;28;45636;-82
2021/09/26 04:07:52;;;;;;;;;22.00;22.00;;;;;17.77;75.13;100594.06;5007301;28;45315;-82
2021/09/26 04:10:17;;;;;;;;;26.00;22.00;;;;;17.72;75.46;100583.41;5007976;28;45481;-82
2021/09/26 04:12:45;;;;;;;;;19.33;19.33;;;;;17.67;76.06;100582.59;4990337;28;45625;-82
2021/09/26 04:15:11;;;;;;;;;21.67;19.00;;;;;17.66;75.74;100588.00;5007588;28;45371;-81
2021/09/26 04:17:37;;;;;;;;;22.00;19.67;;;;;17.56;76.02;100568.47;5006642;28;45521;-82
2021/09/26 04:20:05;;;;;;;;;23.67;20.33;;;;;17.61;76.62;100577.31;4991298;28;44855;-82
2021/09/26 04:22:31;;;;;;;;;22.67;22.67;;;;;17.57;76.65;100575.59;4990265;28;45489;-81
2021/09/26 04:24:56;;;;;;;;;21.67;21.67;;;;;17.51;76.13;100564.94;5006539;28;45884;-82
2021/09/26 04:27:22;;;;;;;;;21.33;20.67;;;;;17.54;76.34;100575.66;4990116;28;45724;-82
2021/09/26 04:29:47;;;;;;;;;22.33;21.67;;;;;17.50;75.57;100564.06;4989854;28;45483;-81
2021/09/26 04:32:13;;;;;;;;;23.00;21.33;;;;;17.52;76.35;100572.13;4991049;28;45775;-82
2021/09/26 04:34:38;;;;;;;;;26.00;24.67;;;;;17.49;76.45;100566.78;4991484;28;46634;-82
2021/09/26 04:37:04;;;;;;;;;24.67;23.67;;;;;17.50;76.36;100563.19;5007858;28;45375;-82
2021/09/26 04:39:29;;;;;;;;;21.33;19.67;;;;;17.42;76.68;100549.00;4990637;28;44810;-81
2021/09/26 04:41:55;;;;;;;;;24.00;23.33;;;;;17.46;76.43;100566.84;5007072;28;45755;-82
2021/09/26 04:44:22;;;;;;;;;23.33;21.00;;;;;17.44;76.47;100563.31;5006459;28;46881;-82
2021/09/26 04:46:47;;;;;;;;;21.33;21.33;;;;;17.45;76.99;100570.44;4991401;28;45570;-82
2021/09/26 04:49:13;;;;;;;;;20.67;20.00;;;;;17.43;76.37;100556.13;5008859;28;45345;-82
2021/09/26 04:51:39;;;;;;;;;24.33;22.67;;;;;17.46;76.50;100566.84;5008337;28;45514;-82
2021/09/26 04:54:05;;;;;;;;;23.33;21.33;;;;;17.47;76.35;100571.28;5007486;28;48384;-82
2021/09/26 04:56:31;;;;;;;;;20.67;19.00;;;;;17.47;76.70;100571.28;5008012;28;45317;-82
2021/09/26 04:58:57;;;;;;;;;21.00;20.67;;;;;17.45;76.28;100576.72;5007839;28;45419;-81
2021/09/26 05:01:22;;;;;;;;;21.67;20.00;;;;;17.44;75.84;100582.13;5006677;28;44972;-82
2021/09/26 05:03:48;;;;;;;;;22.67;20.67;;;;;17.47;76.21;100577.59;4991097;28;47718;-82
2021/09/26 05:06:14;;;;;;;;;18.67;18.33;;;;;17.54;76.25;100589.13;5008056;28;44786;-82
2021/09/26 05:08:42;;;;;;;;;26.00;24.33;;;;;17.51;76.37;100582.00;4989506;28;45511;-82
2021/09/26 05:11:07;;;;;;;;;22.67;21.67;;;;;17.57;76.18;100597.09;5007879;28;45173;-81
2021/09/26 05:13:34;;;;;;;;;19.33;18.67;;;;;17.63;75.86;100602.38;4990215;28;46826;-82
2021/09/26 05:15:59;;;;;;;;;22.67;22.33;;;;;17.63;76.17;100601.50;4990968;28;45707;-82
2021/09/26 05:18:25;;;;;;;;;21.00;20.33;;;;;17.69;76.17;100602.28;5009278;28;45433;-81
2021/09/26 05:20:54;;;;;;;;;26.00;20.00;;;;;17.73;76.24;100608.50;4976054;28;45515;-82
2021/09/26 05:23:22;;;;;;;;;24.33;22.67;;;;;17.77;76.13;100610.22;4989869;28;46904;-82
2021/09/26 05:25:49;;;;;;;;;22.33;20.67;;;;;17.82;75.89;100618.22;4988742;28;45691;-82
2021/09/26 05:28:15;;;;;;;;;20.00;18.33;;;;;17.87;75.23;100619.03;5007121;28;45487;-82
2021/09/26 05:30:40;;;;;;;;;21.67;19.33;;;;;17.95;75.68;100634.13;5007438;28;45480;-81
2021/09/26 05:33:06;;;;;;;;;23.00;22.33;;;;;17.97;75.30;100636.78;4988467;28;47070;-82
2021/09/26 05:35:32;;;;;;;;;22.00;21.33;;;;;17.96;75.08;100629.66;5006524;28;45399;-82
2021/09/26 05:37:58;;;;;;;;;22.00;22.00;;;;;18.08;75.08;100650.97;5006589;28;45617;-82
2021/09/26 05:40:24;;;;;;;;;19.00;19.00;;;;;18.10;74.82;100641.06;4985693;28;45535;-82
2021/09/26 05:42:50;;;;;;;;;18.00;17.00;;;;;18.16;74.66;100656.22;4986455;28;45385;-82
2021/09/26 05:45:16;;;;;;;;;18.67;18.67;;;;;18.21;74.78;100648.03;4984871;28;44811;-82
2021/09/26 05:47:41;;;;;;;;;17.67;17.00;;;;;18.23;74.60;100646.19;4984983;28;45364;-82
2021/09/26 05:50:08;;;;;;;;;20.00;19.00;;;;;18.31;74.45;100653.19;4986933;28;44792;-81
2021/09/26 05:52:34;;;;;;;;;21.33;21.33;;;;;18.36;74.32;100653.09;4984871;28;47015;-82
2021/09/26 05:54:59;;;;;;;;;24.67;22.00;;;;;18.37;74.75;100660.28;4969247;28;45471;-81
2021/09/26 05:57:24;;;;;;;;;22.33;22.00;;;;;18.34;74.43;100660.31;4970759;28;45464;-81
2021/09/26 05:59:50;;;;;;;;;22.33;22.33;;;;;18.32;74.41;100656.78;4984968;28;45277;-83
2021/09/26 06:02:23;;;;;;;;;21.00;20.67;;;;;18.35;74.14;100665.69;4986136;28;45481;-82
2021/09/26 06:04:49;;;;;;;;;23.67;21.33;;;;;18.40;74.52;100676.41;4986340;28;44864;-82
2021/09/26 06:07:15;;;;;;;;;22.00;20.33;;;;;18.41;74.54;100671.88;4987070;28;45471;-82
2021/09/26 06:09:41;;;;;;;;;22.33;19.00;;;;;18.40;74.10;100676.41;4987870;28;44750;-82
2021/09/26 06:12:07;;;;;;;;;19.33;18.00;;;;;18.47;74.37;100682.53;4969357;28;47268;-82
2021/09/26 06:14:32;;;;;;;;;21.33;19.67;;;;;18.45;74.31;100682.56;4987114;28;44766;-82
2021/09/26 06:16:58;;;;;;;;;22.00;22.00;;;;;18.45;74.13;100695.16;4970552;28;45607;-82
2021/09/26 06:19:23;;;;;;;;;22.67;20.67;;;;;18.44;74.61;100679.88;4970677;28;45464;-82
2021/09/26 06:21:49;;;;;;;;;20.33;19.67;;;;;18.44;74.60;100682.59;4990987;28;45391;-82
2021/09/26 06:24:14;;;;;;;;;20.67;20.67;;;;;18.43;74.16;100692.47;4974862;28;45401;-82
2021/09/26 06:26:40;;;;;;;;;19.33;19.00;;;;;18.46;74.51;100697.81;5005746;28;45433;-81
2021/09/26 06:29:05;;;;;;;;;24.33;23.00;;;;;18.46;74.23;100703.22;5006706;28;44782;-82
2021/09/26 06:31:31;;;;;;;;;20.67;19.00;;;;;18.47;74.43;100701.38;5006090;28;46837;-83
2021/09/26 06:33:56;;;;;;;;;21.67;19.33;;;;;18.46;74.13;100692.44;4989299;28;45452;-82
2021/09/26 06:36:22;;;;;;;;;19.00;17.67;;;;;18.53;74.26;100699.47;5010707;28;45963;-81
2021/09/26 06:38:47;;;;;;;;;21.00;20.67;;;;;18.57;74.26;100694.91;4997800;28;45535;-81
2021/09/26 06:41:14;;;;;;;;;18.67;18.33;;;;;18.56;73.91;100688.63;4988848;28;48059;-81
2021/09/26 06:43:39;;;;;;;;;21.33;20.33;;;;;18.63;74.19;100689.41;5005382;28;45443;-82
2021/09/26 06:46:05;;;;;;;;;21.00;21.00;;;;;18.67;73.71;100701.00;4988053;28;45461;-83
2021/09/26 06:48:30;;;;;;;;;20.00;18.33;;;;;18.66;73.55;100689.31;4987325;28;45374;-82
2021/09/26 06:50:55;;;;;;;;;21.33;20.00;;;;;18.72;73.67;100691.00;4987401;28;47021;-82
2021/09/26 06:53:21;;;;;;;;;22.00;21.00;;;;;18.81;73.53;100703.47;5004275;28;45435;-80
2021/09/26 06:55:53;;;;;;;;;22.00;20.33;;;;;18.83;73.15;100701.63;5003985;28;45458;-82
2021/09/26 06:58:19;;;;;;;;;21.67;21.00;;;;;18.79;73.36;100698.97;4989454;28;45426;-81
2021/09/26 07:00:44;;;;;;;;;20.00;15.33;;;;;18.81;73.59;100704.34;4989544;28;47002;-82
2021/09/26 07:03:10;;;;;;;;;22.00;20.33;;;;;18.85;73.56;100711.44;5005533;28;45439;-82
2021/09/26 07:05:36;;;;;;;;;21.00;18.00;;;;;18.85;73.56;100706.03;4988172;28;45484;-82
2021/09/26 07:08:01;;;;;;;;;18.67;18.67;;;;;18.93;73.47;100717.56;4988820;28;45528;-82
2021/09/26 07:10:26;;;;;;;;;20.67;20.00;;;;;19.01;73.09;100712.00;5006678;28;45373;-82
2021/09/26 07:12:52;;;;;;;;;23.00;22.00;;;;;19.10;72.74;100703.72;5005709;28;45304;-81
2021/09/26 07:15:17;;;;;;;;;21.00;17.67;;;;;19.23;73.04;100712.44;5005711;28;45396;-82
2021/09/26 07:17:43;;;;;;;;;22.33;22.33;;;;;19.30;72.39;100719.44;5005040;28;45408;-82
2021/09/26 07:20:09;;;;;;;;;22.33;21.33;;;;;19.39;72.40;100721.94;4987531;28;46895;-82
2021/09/26 07:22:34;;;;;;;;;19.33;19.00;;;;;19.42;72.15;100717.41;5005042;28;45391;-82
2021/09/26 07:25:06;;;;;;;;;19.67;18.67;;;;;19.45;72.00;100714.63;4987145;28;45752;-82
2021/09/26 07:27:38;;;;;;;;;21.00;19.67;;;;;19.44;71.47;100720.97;5004431;28;45545;-82
2021/09/26 07:30:04;;;;;;;;;19.33;18.00;;;;;19.45;71.58;100723.63;5006039;28;45476;-82
2021/09/26 07:32:30;;;;;;;;;19.33;19.33;;;;;19.44;71.70;100720.97;4989272;28;45473;-82
2021/09/26 07:38:18;;;;;;;;;17.67;17.00;;;;;19.43;71.50;100721.88;5006752;28;45209;-82
2021/09/26 07:40:43;;;;;;;;;18.33;17.00;;;;;19.47;71.41;100734.34;5004338;28;47414;-82
2021/09/26 07:43:08;;;;;;;;;19.00;18.00;;;;;19.50;71.54;100743.28;5006523;28;45363;-82
2021/09/26 07:45:35;;;;;;;;;16.33;16.33;;;;;19.52;71.68;100745.94;4987412;28;45525;-82
2021/09/26 07:48:02;;;;;;;;;17.67;17.67;;;;;19.58;71.29;100751.19;4987569;28;45426;-82
2021/09/26 07:50:28;;;;;;;;;22.33;22.00;;;;;19.61;71.45;100756.50;4972932;28;46808;-82
2021/09/26 07:52:54;;;;;;;;;19.00;17.67;;;;;19.60;71.16;100754.75;5007809;28;45340;-82
2021/09/26 07:55:20;;;;;;;;;20.00;16.00;;;;;19.59;71.28;100763.75;5005369;28;45760;-82
2021/09/26 07:57:46;;;;;;;;;17.67;17.00;;;;;19.53;71.34;100758.50;4987761;28;44979;-82
2021/09/26 08:03:34;;;;;;;;;19.33;18.33;;;;;19.44;71.28;100764.09;5004941;28;45408;-81
2021/09/26 08:05:59;;;;;;;;;17.00;17.00;;;;;19.40;71.56;100774.06;4989037;28;44877;-82
2021/09/26 08:08:25;;;;;;;;;21.00;21.00;;;;;19.43;71.57;100779.41;4971619;28;45507;-82
2021/09/26 08:10:51;;;;;;;;;19.67;19.33;;;;;19.42;71.50;100776.75;5006025;28;45384;-81
2021/09/26 08:13:18;;;;;;;;;19.67;18.67;;;;;19.41;72.02;100774.94;5006521;28;45380;-82
2021/09/26 08:15:44;;;;;;;;;23.00;19.67;;;;;19.50;71.43;100775.63;4989511;28;44945;-82
2021/09/26 08:18:10;;;;;;;;;23.00;19.33;;;;;19.65;71.36;100769.00;5004840;28;45093;-82
2021/09/26 08:20:35;;;;;;;;;19.00;18.67;;;;;19.78;70.96;100770.53;5005257;28;45426;-82
2021/09/26 08:23:00;;;;;;;;;19.00;18.00;;;;;20.04;70.90;100782.53;5005936;28;45533;-82
2021/09/26 08:25:26;;;;;;;;;18.67;18.33;;;;;20.25;70.55;100783.78;4987257;28;45448;-83
2021/09/26 08:27:51;;;;;;;;;21.33;17.33;;;;;20.42;69.82;100788.78;4990503;28;45455;-82
2021/09/26 08:30:19;;;;;;;;;20.00;20.00;;;;;20.47;69.49;100778.72;4990633;28;47006;-82
2021/09/26 08:32:46;;;;;;;;;17.33;15.00;;;;;20.49;68.91;100771.47;5010131;28;45427;-82
2021/09/26 08:35:14;;;;;;;;;20.00;17.00;;;;;20.68;69.34;100782.72;5009103;28;45430;-82
2021/09/26 08:37:40;;;;;;;;;17.33;16.67;;;;;20.84;68.29;100788.56;4991885;28;45506;-82
2021/09/26 08:40:06;;;;;;;;;21.67;19.00;;;;;20.85;67.99;100787.66;4991431;28;45558;-82
2021/09/26 08:42:37;;;;;;;;;17.67;17.00;;;;;20.83;68.34;100794.03;4991402;28;45445;-82
2021/09/26 08:45:05;;;;;;;;;20.67;19.33;;;;;20.76;68.02;100786.09;5007374;28;45442;-81
2021/09/26 08:48:13;;;;;;;;;18.00;18.00;;;;;20.75;68.00;100787.00;4989750;28;45583;-82
2021/09/26 08:50:39;;;;;;;;;17.67;17.67;;;;;20.75;68.20;100794.25;4991034;28;45493;-82
2021/09/26 08:53:07;;;;;;;;;16.00;15.00;;;;;20.80;68.21;100789.59;5007202;28;45411;-83
2021/09/26 08:55:33;;;;;;;;;15.67;13.00;;;;;20.83;67.69;100786.81;4989883;28;45590;-81
2021/09/26 08:57:59;;;;;;;;;16.67;16.00;;;;;20.85;67.83;100782.25;4989345;28;45474;-81
2021/09/26 09:00:26;;;;;;;;;16.00;16.00;;;;;21.00;67.45;100789.03;5007453;28;45965;-82
2021/09/26 09:02:52;;;;;;;;;17.67;16.67;;;;;21.02;66.92;100791.69;5007596;28;44958;-82
2021/09/26 09:05:36;;;;;;;;;19.00;17.00;;;;;21.16;66.95;100792.19;4988521;28;44734;-82
2021/09/26 09:08:09;;;;;;;;;16.33;15.00;;;;;21.23;66.30;100782.97;4989036;28;45534;-82
2021/09/26 09:11:07;;;;;;;;;14.00;13.00;;;;;21.42;66.34;100786.00;4989058;28;47102;-81
2021/09/26 09:13:36;;;;;;;;;16.67;14.00;;;;;21.58;65.81;100792.75;4966573;28;45478;-82
2021/09/26 09:16:02;;;;;;;;;16.00;14.00;;;;;21.74;65.30;100784.16;4952822;28;44907;-82
2021/09/26 09:18:51;;;;;;;;;16.00;14.00;;;;;21.97;64.95;100773.47;4968421;28;45580;-82
2021/09/26 09:21:21;;;;;;;;;16.00;13.67;;;;;22.32;64.74;100774.16;4967144;28;45503;-82
2021/09/26 09:23:48;;;;;;;;;15.33;15.00;;;;;22.48;63.46;100763.69;4968788;28;45547;-82
2021/09/26 09:26:14;;;;;;;;;17.00;17.00;;;;;22.66;62.94;100774.78;4951281;28;45541;-82
2021/09/26 09:28:40;;;;;;;;;17.00;13.67;;;;;22.75;62.59;100782.63;4950569;28;45852;-82
2021/09/26 09:31:09;;;;;;;;;14.67;14.67;;;;;22.72;62.74;100782.72;4950100;28;47042;-82
2021/09/26 09:33:41;;;;;;;;;16.00;13.67;;;;;22.63;62.13;100786.66;4951601;28;45710;-82
2021/09/26 09:36:29;;;;;;;;;17.00;14.00;;;;;22.51;62.61;100782.53;4958937;28;44861;-82
2021/09/26 09:39:09;;;;;;;;;15.67;15.00;;;;;22.51;62.41;100787.06;4946025;28;44889;-81
2021/09/26 09:41:37;;;;;;;;;15.00;14.33;;;;;22.55;62.66;100781.47;4948606;28;45630;-82
2021/09/26 09:44:05;;;;;;;;;14.33;14.33;;;;;22.55;61.89;100789.63;4946368;28;45641;-82
2021/09/26 09:46:40;;;;;;;;;14.00;14.00;;;;;22.48;61.78;100793.50;4931600;28;45200;-82
2021/09/26 09:49:20;;;;;;;;;14.00;14.00;;;;;22.43;62.05;100794.59;4950630;28;45506;-82
2021/09/26 09:51:52;;;;;;;;;14.67;14.67;;;;;22.33;62.35;100788.59;4988723;28;45402;-82
2021/09/26 09:54:29;;;;;;;;;13.00;13.00;;;;;22.28;62.15;100790.56;4987956;28;44985;-82
2021/09/26 09:56:56;;;;;;;;;13.33;13.33;;;;;22.14;62.58;100791.88;4990048;28;45860;-82
2021/09/26 09:59:32;;;;;;;;;14.33;14.33;;;;;22.16;62.73;100794.56;4990270;28;44999;-81
2021/09/26 10:01:58;;;;;;;;;15.33;14.33;;;;;22.20;62.79;100793.50;4991145;28;45154;-81
2021/09/26 10:05:13;;;;;;;;;14.67;14.67;;;;;22.30;62.36;100800.44;5001339;28;44810;-82
2021/09/26 10:07:42;;;;;;;;;14.67;12.67;;;;;22.27;62.44;100796.94;4986529;28;44792;-81
2021/09/26 10:10:16;;;;;;;;;13.67;13.67;;;;;22.24;62.24;100799.72;5003073;28;44913;-82
2021/09/26 10:12:41;;;;;;;;;11.67;11.67;;;;;22.20;62.11;100803.44;4986828;28;45335;-82
2021/09/26 10:15:07;;;;;;;;;14.33;13.67;;;;;22.24;62.31;100810.56;5005097;28;44786;-82
2021/09/26 10:17:32;;;;;;;;;15.00;14.00;;;;;22.23;61.86;100797.94;5004821;28;44909;-81
2021/09/26 10:19:58;;;;;;;;;14.00;14.00;;;;;22.28;62.34;100802.31;4987621;28;44803;-81
2021/09/26 10:22:24;;;;;;;;;16.00;15.00;;;;;22.44;62.76;100799.97;4987573;28;47050;-81
2021/09/26 10:24:52;;;;;;;;;17.33;15.67;;;;;22.60;62.38;100800.28;4996416;28;45806;-81
2021/09/26 10:27:22;;;;;;;;;12.67;12.00;;;;;22.68;61.08;100797.31;4973223;28;45357;-81
2021/09/26 10:30:04;;;;;;;;;12.33;12.00;;;;;22.70;61.36;100780.09;4971856;28;45788;-81
2021/09/26 10:32:30;;;;;;;;;11.00;11.00;;;;;22.84;60.90;100787.69;4989606;28;47169;-82
2021/09/26 10:34:56;;;;;;;;;12.33;12.33;;;;;22.96;60.03;100783.66;4971312;28;45438;-82
2021/09/26 10:37:22;;;;;;;;;15.67;15.33;;;;;22.93;60.16;100779.22;4970935;28;45732;-82
2021/09/26 10:39:50;;;;;;;;;14.00;14.00;;;;;22.88;59.08;100778.50;4988858;28;45439;-82
2021/09/26 10:42:21;;;;;;;;;11.67;10.67;;;;;22.84;59.26;100784.09;4969594;28;45485;-82
2021/09/26 10:44:58;;;;;;;;;13.67;13.00;;;;;22.75;59.69;100771.78;4987423;28;45493;-82
2021/09/26 10:47:28;;;;;;;;;12.00;11.67;;;;;22.72;60.29;100788.13;4986565;28;45435;-82
2021/09/26 10:50:15;;;;;;;;;14.67;13.67;;;;;22.66;60.25;100780.22;4986199;28;45383;-83
2021/09/26 10:52:50;;;;;;;;;12.00;12.00;;;;;22.73;60.49;100789.91;4987926;28;45409;-83
2021/09/26 10:55:21;;;;;;;;;13.00;13.00;;;;;22.71;60.29;100778.25;4971229;28;45773;-82
2021/09/26 10:57:59;;;;;;;;;16.00;15.33;;;;;22.74;60.18;100783.53;4971748;28;45463;-82
2021/09/26 11:00:32;;;;;;;;;14.00;14.00;;;;;22.76;60.66;100789.78;4989033;28;45526;-82
2021/09/26 11:03:08;;;;;;;;;15.67;15.67;;;;;22.83;60.90;100785.94;4971293;28;47010;-82
2021/09/26 11:05:36;;;;;;;;;13.00;13.00;;;;;22.98;60.59;100779.06;4987245;28;45376;-82
2021/09/26 11:08:04;;;;;;;;;14.67;14.67;;;;;23.15;60.43;100767.63;4988423;28;44723;-82
2021/09/26 11:10:49;;;;;;;;;12.67;12.67;;;;;23.20;60.03;100749.31;4970618;28;45566;-82
2021/09/26 11:13:19;;;;;;;;;14.00;13.67;;;;;23.32;59.57;100748.84;4987088;28;46789;-83
2021/09/26 11:16:14;;;;;;;;;18.00;17.67;;;;;23.51;59.05;100750.84;4987324;28;45462;-82
2021/09/26 11:19:11;;;;;;;;;11.67;11.67;;;;;23.57;58.33;100753.31;4987442;28;45423;-82
2021/09/26 11:21:36;;;;;;;;;12.67;11.33;;;;;23.61;58.56;100745.94;4971092;28;45731;-82
2021/09/26 11:24:24;;;;;;;;;13.00;13.00;;;;;23.71;58.62;100753.69;4971392;28;48048;-82
2021/09/26 11:26:56;;;;;;;;;14.33;13.33;;;;;23.92;58.15;100759.22;4968156;28;45902;-82
2021/09/26 11:29:21;;;;;;;;;14.33;12.00;;;;;24.01;57.95;100747.06;4984202;28;45215;-82
2021/09/26 11:31:47;;;;;;;;;12.67;12.67;;;;;24.03;56.79;100734.31;4967398;28;44846;-81